Time;durP1;ratioP1;P1;durP2;ratioP2;P2;SDS_P1;SDS_P2;PMS_P1;PMS_P2;Temp;Humidity;BMP_temperature;BMP_pressure;BME280_temperature;BME280_humidity;BME280_pressure;Samples;Min_cycle;Max_cycle;Signal;HPM_P1;HPM_P2
2022/04/21 00:00:34;;;;;;;12.32;7.63;;;;;;;;;;5094501;28;20032;-44
2022/04/21 00:03:00;;;;;;;14.27;8.50;;;;;;;;;;5094805;28;20020;-44
2022/04/21 00:05:26;;;;;;;12.45;7.95;;;;;;;;;;5093983;28;20365;-44
2022/04/21 00:07:52;;;;;;;13.73;8.38;;;;;;;;;;5094588;28;20087;-44
2022/04/21 00:10:19;;;;;;;14.40;8.88;;;;;;;;;;5094661;28;20115;-43
2022/04/21 00:12:44;;;;;;;11.80;7.97;;;;;;;;;;5094498;28;20031;-45
2022/04/21 00:15:10;;;;;;;12.43;7.78;;;;;;;;;;5094355;28;20020;-44
2022/04/21 00:17:35;;;;;;;17.27;9.18;;;;;;;;;;5094285;28;20053;-48
2022/04/21 00:20:01;;;;;;;14.68;8.77;;;;;;;;;;5094342;28;20103;-46
2022/04/21 00:25:11;;;;;;;11.25;8.32;;;;;;;;;;5092791;28;20032;-46
2022/04/21 00:27:41;;;;;;;16.15;8.45;;;;;;;;;;5094236;28;20016;-44
2022/04/21 00:30:07;;;;;;;12.75;8.77;;;;;;;;;;5094152;28;20020;-48
2022/04/21 00:32:34;;;;;;;11.13;8.18;;;;;;;;;;5093907;28;20089;-44
2022/04/21 00:35:00;;;;;;;12.73;7.93;;;;;;;;;;5094293;28;20024;-44
2022/04/21 00:37:26;;;;;;;10.15;7.28;;;;;;;;;;5094210;28;20379;-47
2022/04/21 00:39:51;;;;;;;9.90;6.57;;;;;;;;;;5092577;28;20027;-47
2022/04/21 00:42:17;;;;;;;7.30;5.50;;;;;;;;;;5092312;28;20436;-47
2022/04/21 00:44:42;;;;;;;11.43;7.32;;;;;;;;;;5092014;28;20111;-44
2022/04/21 00:47:08;;;;;;;10.80;7.07;;;;;;;;;;5092147;28;20116;-44
2022/04/21 00:49:35;;;;;;;8.30;6.82;;;;;;;;;;5092336;28;20024;-43
2022/04/21 00:52:02;;;;;;;9.30;6.40;;;;;;;;;;5092461;28;20035;-46
2022/04/21 00:54:32;;;;;;;11.43;6.45;;;;;;;;;;5093004;28;20031;-46
2022/04/21 00:56:59;;;;;;;8.27;6.53;;;;;;;;;;5093498;28;20062;-46
2022/04/21 00:59:25;;;;;;;11.23;6.53;;;;;;;;;;5093569;28;20024;-44
2022/04/21 01:04:37;;;;;;;10.52;7.30;;;;;;;;;;5093492;28;20074;-44
2022/04/21 01:07:02;;;;;;;11.60;7.38;;;;;;;;;;5093776;28;20016;-46
2022/04/21 01:09:28;;;;;;;15.30;7.53;;;;;;;;;;5093642;28;20524;-45
2022/04/21 01:11:53;;;;;;;11.75;7.40;;;;;;;;;;5093268;28;20361;-46
2022/04/21 01:14:20;;;;;;;11.00;7.72;;;;;;;;;;5093319;28;20032;-44
2022/04/21 01:16:46;;;;;;;9.90;7.35;;;;;;;;;;5092862;28;20056;-43
2022/04/21 01:19:11;;;;;;;12.27;6.93;;;;;;;;;;5093277;28;20051;-47
2022/04/21 01:21:37;;;;;;;10.55;7.03;;;;;;;;;;5093474;28;20018;-48
2022/04/21 01:24:04;;;;;;;13.88;7.82;;;;;;;;;;5093080;28;20031;-45
2022/04/21 01:26:34;;;;;;;11.75;7.97;;;;;;;;;;5093092;28;20028;-47
2022/04/21 01:29:02;;;;;;;14.45;8.27;;;;;;;;;;5093393;28;20020;-44
2022/04/21 01:31:27;;;;;;;12.02;7.60;;;;;;;;;;5093306;28;20030;-45
2022/04/21 01:33:52;;;;;;;12.68;8.23;;;;;;;;;;5093273;28;20103;-42
2022/04/21 01:36:18;;;;;;;16.23;8.90;;;;;;;;;;5092863;28;20036;-46
2022/04/21 01:41:27;;;;;;;14.95;9.07;;;;;;;;;;5093117;28;20058;-46
2022/04/21 01:43:52;;;;;;;15.57;8.98;;;;;;;;;;5092825;28;20067;-44
2022/04/21 01:46:18;;;;;;;16.20;8.32;;;;;;;;;;5093128;28;20027;-45
2022/04/21 01:48:43;;;;;;;14.23;7.75;;;;;;;;;;5093016;28;20059;-46
2022/04/21 01:51:08;;;;;;;14.88;7.45;;;;;;;;;;5093007;28;20075;-44
2022/04/21 01:53:34;;;;;;;13.57;7.75;;;;;;;;;;5092730;28;20020;-44
2022/04/21 01:56:00;;;;;;;13.93;8.35;;;;;;;;;;5092173;28;20055;-46
2022/04/21 01:58:26;;;;;;;17.13;9.27;;;;;;;;;;5092908;28;20076;-46
2022/04/21 02:00:51;;;;;;;13.57;7.97;;;;;;;;;;5092876;28;20433;-44
2022/04/21 02:03:17;;;;;;;14.38;8.85;;;;;;;;;;5092847;28;20043;-45
2022/04/21 02:05:42;;;;;;;18.05;10.07;;;;;;;;;;5092564;28;20028;-46
2022/04/21 02:08:08;;;;;;;17.08;9.25;;;;;;;;;;5092806;28;20107;-44
2022/04/21 02:10:33;;;;;;;19.40;9.63;;;;;;;;;;5092805;28;20038;-45
2022/04/21 02:12:59;;;;;;;16.90;8.90;;;;;;;;;;5092725;28;20364;-45
2022/04/21 02:15:24;;;;;;;15.27;9.07;;;;;;;;;;5092676;28;20117;-41
2022/04/21 02:17:50;;;;;;;15.77;9.82;;;;;;;;;;5092356;28;20043;-44
2022/04/21 02:20:17;;;;;;;19.85;10.15;;;;;;;;;;5092434;28;20024;-48
2022/04/21 02:22:46;;;;;;;15.88;9.45;;;;;;;;;;5092638;28;20027;-44
2022/04/21 02:25:13;;;;;;;18.15;9.77;;;;;;;;;;5092395;28;20107;-44
2022/04/21 02:27:41;;;;;;;17.13;9.00;;;;;;;;;;5092615;28;20024;-45
2022/04/21 02:30:08;;;;;;;17.20;10.45;;;;;;;;;;5096257;28;20085;-46
2022/04/21 02:32:34;;;;;;;18.75;8.43;;;;;;;;;;5096390;28;20487;-47
2022/04/21 02:35:01;;;;;;;15.55;8.60;;;;;;;;;;5096555;28;20051;-46
2022/04/21 02:37:26;;;;;;;17.25;10.23;;;;;;;;;;5096530;28;20028;-46
2022/04/21 02:39:52;;;;;;;17.33;10.02;;;;;;;;;;5096571;28;20028;-47
2022/04/21 02:42:21;;;;;;;20.48;11.27;;;;;;;;;;5096506;28;20020;-47
2022/04/21 02:44:47;;;;;;;14.55;8.90;;;;;;;;;;5096189;28;20020;-47
2022/04/21 02:47:14;;;;;;;15.95;9.80;;;;;;;;;;5096444;28;20028;-45
2022/04/21 02:49:45;;;;;;;22.55;10.80;;;;;;;;;;5096229;28;20276;-50
2022/04/21 02:52:11;;;;;;;15.30;9.55;;;;;;;;;;5096152;28;20052;-47
2022/04/21 02:57:22;;;;;;;25.08;9.82;;;;;;;;;;5095820;28;20149;-48
2022/04/21 02:59:53;;;;;;;17.27;9.90;;;;;;;;;;5094639;28;20138;-49
2022/04/21 03:02:19;;;;;;;22.55;10.48;;;;;;;;;;5096237;28;20498;-47
2022/04/21 03:04:45;;;;;;;18.48;9.82;;;;;;;;;;5094845;28;20020;-44
2022/04/21 03:07:11;;;;;;;24.58;11.73;;;;;;;;;;5095757;28;20545;-48
2022/04/21 03:09:36;;;;;;;21.75;11.75;;;;;;;;;;5095713;28;20024;-44
2022/04/21 03:12:03;;;;;;;25.25;11.65;;;;;;;;;;5095663;28;20028;-44
2022/04/21 03:14:29;;;;;;;30.90;11.13;;;;;;;;;;5095636;28;20039;-44
2022/04/21 03:16:54;;;;;;;26.95;12.02;;;;;;;;;;5095554;28;20036;-46
2022/04/21 03:19:20;;;;;;;27.23;11.40;;;;;;;;;;5095770;28;20029;-45
2022/04/21 03:24:30;;;;;;;30.45;11.43;;;;;;;;;;5095557;28;20498;-47
2022/04/21 03:26:56;;;;;;;27.33;12.10;;;;;;;;;;5095755;28;20429;-44
2022/04/21 03:29:21;;;;;;;17.52;8.52;;;;;;;;;;5095580;28;20020;-45
2022/04/21 03:31:48;;;;;;;22.08;11.85;;;;;;;;;;5095619;28;20081;-45
2022/04/21 03:34:16;;;;;;;30.92;10.77;;;;;;;;;;5095218;28;20024;-47
2022/04/21 03:36:48;;;;;;;23.00;13.07;;;;;;;;;;5095463;28;20028;-45
2022/04/21 03:39:15;;;;;;;16.38;9.95;;;;;;;;;;5095465;28;20024;-44
2022/04/21 03:41:41;;;;;;;23.27;10.07;;;;;;;;;;5094483;28;20024;-46
2022/04/21 03:44:06;;;;;;;18.50;6.50;;;;;;;;;;5095427;28;20028;-46
2022/04/21 03:46:32;;;;;;;20.33;10.55;;;;;;;;;;5095372;28;20379;-47
2022/04/21 03:48:58;;;;;;;20.85;10.55;;;;;;;;;;5095208;28;20425;-46
2022/04/21 03:51:27;;;;;;;23.70;11.38;;;;;;;;;;5095266;28;20489;-46
2022/04/21 03:53:55;;;;;;;19.25;10.00;;;;;;;;;;5094786;28;20020;-47
2022/04/21 03:56:21;;;;;;;21.98;10.90;;;;;;;;;;5094659;28;20048;-44
2022/04/21 03:58:47;;;;;;;19.63;10.57;;;;;;;;;;5095087;28;20038;-46
2022/04/21 04:01:12;;;;;;;18.33;10.02;;;;;;;;;;5094735;28;20043;-47
2022/04/21 04:03:38;;;;;;;21.40;11.40;;;;;;;;;;5094655;28;20077;-47
2022/04/21 04:10:51;;;;;;;20.83;11.20;;;;;;;;;;5094716;28;20109;-47
2022/04/21 04:11:34;;;;;;;23.52;10.27;;;;;;;;;;5094790;28;20088;-46
2022/04/21 04:13:59;;;;;;;19.90;10.48;;;;;;;;;;5094741;28;20511;-48
2022/04/21 04:16:24;;;;;;;21.33;11.07;;;;;;;;;;5094423;28;20170;-48
2022/04/21 04:18:50;;;;;;;22.83;11.23;;;;;;;;;;5094683;28;20026;-46
2022/04/21 04:21:15;;;;;;;15.07;8.77;;;;;;;;;;5094330;28;20020;-48
2022/04/21 04:23:41;;;;;;;21.15;12.45;;;;;;;;;;5094609;28;20081;-49
2022/04/21 04:26:06;;;;;;;15.00;9.43;;;;;;;;;;5093315;28;20027;-47
2022/04/21 04:28:32;;;;;;;14.05;8.63;;;;;;;;;;5094239;28;20425;-49
2022/04/21 04:30:57;;;;;;;16.70;9.68;;;;;;;;;;5093934;28;20032;-39
2022/04/21 04:33:22;;;;;;;17.95;9.45;;;;;;;;;;5094203;28;20028;-48
2022/04/21 04:35:48;;;;;;;18.88;9.90;;;;;;;;;;5093932;28;20024;-50
2022/04/21 04:38:14;;;;;;;20.60;9.52;;;;;;;;;;5093033;28;20028;-46
2022/04/21 04:40:39;;;;;;;18.15;9.68;;;;;;;;;;5093982;28;20028;-51
2022/04/21 04:43:05;;;;;;;21.33;10.20;;;;;;;;;;5094063;28;20093;-49
2022/04/21 04:48:14;;;;;;;18.65;10.13;;;;;;;;;;5093704;28;20067;-49
2022/04/21 04:50:40;;;;;;;15.45;9.77;;;;;;;;;;5093861;28;20047;-44
2022/04/21 04:53:05;;;;;;;12.60;7.65;;;;;;;;;;5093400;28;20050;-44
2022/04/21 04:55:31;;;;;;;10.77;8.25;;;;;;;;;;5093521;28;20031;-43
2022/04/21 04:57:56;;;;;;;11.43;7.78;;;;;;;;;;5093923;28;20058;-43
2022/04/21 05:00:24;;;;;;;14.02;8.68;;;;;;;;;;5093891;28;20020;-47
2022/04/21 05:02:50;;;;;;;13.45;8.38;;;;;;;;;;5093507;28;20022;-47
2022/04/21 05:05:15;;;;;;;13.68;8.60;;;;;;;;;;5093546;28;20110;-45
2022/04/21 05:07:41;;;;;;;15.52;9.75;;;;;;;;;;5093744;28;20464;-48
2022/04/21 05:10:08;;;;;;;18.15;10.38;;;;;;;;;;5093286;28;20024;-43
2022/04/21 05:12:33;;;;;;;14.00;9.75;;;;;;;;;;5093594;28;20032;-46
2022/04/21 05:14:59;;;;;;;13.90;8.95;;;;;;;;;;5093392;28;20024;-41
2022/04/21 05:17:25;;;;;;;16.10;8.65;;;;;;;;;;5093511;28;20028;-41
2022/04/21 05:19:52;;;;;;;11.82;8.32;;;;;;;;;;5093583;28;20065;-43
2022/04/21 05:22:18;;;;;;;11.18;7.65;;;;;;;;;;5093438;28;20028;-44
2022/04/21 05:24:51;;;;;;;11.27;8.13;;;;;;;;;;5093083;28;20042;-47
2022/04/21 05:27:17;;;;;;;12.90;8.73;;;;;;;;;;5093357;28;20032;-43
2022/04/21 05:32:30;;;;;;;10.35;7.75;;;;;;;;;;5092740;28;20085;-41
2022/04/21 05:34:57;;;;;;;11.80;7.30;;;;;;;;;;5092045;28;20024;-46
2022/04/21 05:37:22;;;;;;;11.20;7.70;;;;;;;;;;5092444;28;20028;-44
2022/04/21 05:39:48;;;;;;;13.48;8.52;;;;;;;;;;5092386;28;20024;-42
2022/04/21 05:42:20;;;;;;;12.32;8.98;;;;;;;;;;5092918;28;20032;-43
2022/04/21 05:44:46;;;;;;;15.60;8.27;;;;;;;;;;5092516;28;20476;-46
2022/04/21 05:47:12;;;;;;;10.98;8.48;;;;;;;;;;5092702;28;20031;-47
2022/04/21 05:49:38;;;;;;;11.43;7.97;;;;;;;;;;5092773;28;20035;-49
2022/04/21 05:52:07;;;;;;;14.13;9.07;;;;;;;;;;5092759;28;20028;-49
2022/04/21 05:54:32;;;;;;;15.35;9.25;;;;;;;;;;5092613;28;20107;-47
2022/04/21 05:56:59;;;;;;;19.85;9.73;;;;;;;;;;5092439;28;20136;-44
2022/04/21 05:59:24;;;;;;;16.95;9.98;;;;;;;;;;5092907;28;20048;-44
2022/04/21 06:01:50;;;;;;;17.17;10.88;;;;;;;;;;5092713;28;20074;-45
2022/04/21 06:04:15;;;;;;;15.10;9.63;;;;;;;;;;5092412;28;20024;-52
2022/04/21 06:06:40;;;;;;;17.70;10.52;;;;;;;;;;5092904;28;20036;-52
2022/04/21 06:09:06;;;;;;;14.07;9.85;;;;;;;;;;5092454;28;20479;-51
2022/04/21 06:11:33;;;;;;;18.13;10.43;;;;;;;;;;5092625;28;20073;-48
2022/04/21 06:13:58;;;;;;;13.45;9.07;;;;;;;;;;5092425;28;20024;-47
2022/04/21 06:16:23;;;;;;;15.43;9.73;;;;;;;;;;5092658;28;20024;-46
2022/04/21 06:18:50;;;;;;;15.45;9.13;;;;;;;;;;5092302;28;20461;-45
2022/04/21 06:21:15;;;;;;;20.45;9.77;;;;;;;;;;5091173;28;20024;-47
2022/04/21 06:23:41;;;;;;;16.50;9.75;;;;;;;;;;5092636;28;20069;-46
2022/04/21 06:26:06;;;;;;;16.48;10.63;;;;;;;;;;5091366;28;20036;-47
2022/04/21 06:28:34;;;;;;;15.18;9.48;;;;;;;;;;5092554;28;20101;-50
2022/04/21 06:31:00;;;;;;;14.77;9.55;;;;;;;;;;5092562;28;20361;-50
2022/04/21 06:33:25;;;;;;;15.30;9.75;;;;;;;;;;5092235;28;20107;-49
2022/04/21 06:35:51;;;;;;;18.15;9.57;;;;;;;;;;5092488;28;20114;-47
2022/04/21 06:38:16;;;;;;;14.57;8.98;;;;;;;;;;5092245;28;20112;-45
2022/04/21 06:40:42;;;;;;;15.70;8.57;;;;;;;;;;5092472;28;20464;-51
2022/04/21 06:48:39;;;;;;;12.10;8.00;;;;;;;;;;5091149;28;20544;-42
2022/04/21 06:51:05;;;;;;;9.95;7.80;;;;;;;;;;5090113;28;20040;-41
2022/04/21 06:53:31;;;;;;;11.68;8.60;;;;;;;;;;5090397;28;20021;-48
2022/04/21 06:55:57;;;;;;;15.32;9.13;;;;;;;;;;5090484;28;20548;-45
2022/04/21 06:58:22;;;;;;;10.18;7.75;;;;;;;;;;5092353;28;20123;-43
2022/04/21 07:00:48;;;;;;;12.32;7.70;;;;;;;;;;5091865;28;20024;-45
2022/04/21 07:03:13;;;;;;;9.32;7.40;;;;;;;;;;5091897;28;20020;-45
2022/04/21 07:05:39;;;;;;;9.10;7.55;;;;;;;;;;5092277;28;20023;-47
2022/04/21 07:08:04;;;;;;;8.80;6.90;;;;;;;;;;5090964;28;20086;-47
2022/04/21 07:10:30;;;;;;;10.75;7.78;;;;;;;;;;5091947;28;20020;-41
2022/04/21 07:12:55;;;;;;;10.45;7.18;;;;;;;;;;5092178;28;20032;-46
2022/04/21 07:15:21;;;;;;;7.88;6.18;;;;;;;;;;5092738;28;20571;-42
2022/04/21 07:17:46;;;;;;;8.27;6.38;;;;;;;;;;5095690;28;20114;-46
2022/04/21 07:20:12;;;;;;;7.47;5.65;;;;;;;;;;5095810;28;20154;-51
2022/04/21 07:22:38;;;;;;;7.47;6.43;;;;;;;;;;5095362;28;20027;-47
2022/04/21 07:25:06;;;;;;;11.55;6.40;;;;;;;;;;5095604;28;20028;-47
2022/04/21 07:27:32;;;;;;;6.55;5.85;;;;;;;;;;5095298;28;20024;-43
2022/04/21 07:29:57;;;;;;;6.63;5.45;;;;;;;;;;5095655;28;20024;-45
2022/04/21 07:32:23;;;;;;;11.23;5.80;;;;;;;;;;5090064;28;20032;-47
2022/04/21 07:34:48;;;;;;;9.60;6.25;;;;;;;;;;5094929;28;20034;-43
2022/04/21 07:37:14;;;;;;;6.63;5.50;;;;;;;;;;5095383;28;20039;-44
2022/04/21 07:39:42;;;;;;;6.63;5.70;;;;;;;;;;5095470;28;20036;-45
2022/04/21 07:42:11;;;;;;;7.35;5.90;;;;;;;;;;5094994;28;20028;-42
2022/04/21 07:44:37;;;;;;;9.38;6.28;;;;;;;;;;5095401;28;20028;-46
2022/04/21 07:47:04;;;;;;;6.35;5.40;;;;;;;;;;5094823;28;20093;-45
2022/04/21 07:49:45;;;;;;;7.65;5.82;;;;;;;;;;5094978;28;20127;-45
2022/04/21 07:55:18;;;;;;;4.50;3.08;;;;;;;;;;5095057;28;20105;-49
2022/04/21 07:57:45;;;;;;;7.13;4.93;;;;;;;;;;5094607;28;20048;-45
2022/04/21 08:00:12;;;;;;;7.40;4.80;;;;;;;;;;5094687;28;20488;-46
2022/04/21 08:02:39;;;;;;;4.65;4.20;;;;;;;;;;5093763;28;20157;-46
2022/04/21 08:05:05;;;;;;;14.90;6.07;;;;;;;;;;5094940;28;20401;-46
2022/04/21 08:07:31;;;;;;;5.30;4.00;;;;;;;;;;5094445;28;20082;-47
2022/04/21 08:09:56;;;;;;;6.82;4.68;;;;;;;;;;5094783;28;20048;-46
2022/04/21 08:12:22;;;;;;;4.88;4.38;;;;;;;;;;5094799;28;20056;-46
2022/04/21 08:14:47;;;;;;;6.03;4.38;;;;;;;;;;5094558;28;20073;-47
2022/04/21 08:17:13;;;;;;;4.68;4.20;;;;;;;;;;5094369;28;20479;-51
2022/04/21 08:19:38;;;;;;;4.55;4.10;;;;;;;;;;5094362;28;20106;-46
2022/04/21 08:22:04;;;;;;;5.63;4.55;;;;;;;;;;5094259;28;20056;-45
2022/04/21 08:32:43;;;;;;;4.20;3.40;;;;;;;;;;5094347;28;20034;-48
2022/04/21 08:35:13;;;;;;;4.00;3.60;;;;;;;;;;5094476;28;20031;-46
2022/04/21 08:37:39;;;;;;;4.60;4.20;;;;;;;;;;5094074;28;20039;-52
2022/04/21 08:40:06;;;;;;;5.63;4.20;;;;;;;;;;5094036;28;20032;-50
2022/04/21 08:42:36;;;;;;;5.40;4.90;;;;;;;;;;5093908;28;20043;-45
2022/04/21 08:45:02;;;;;;;7.00;4.80;;;;;;;;;;5094257;28;20063;-51
2022/04/21 08:47:28;;;;;;;5.93;4.53;;;;;;;;;;5094172;28;20052;-47
2022/04/21 08:50:03;;;;;;;5.85;4.30;;;;;;;;;;5093893;28;20027;-52
2022/04/21 08:52:29;;;;;;;4.90;3.60;;;;;;;;;;5094074;28;20372;-51
2022/04/21 08:54:55;;;;;;;5.60;4.28;;;;;;;;;;5093948;28;20083;-45
2022/04/21 08:57:21;;;;;;;6.45;4.35;;;;;;;;;;5093354;28;20093;-48
2022/04/21 08:59:47;;;;;;;5.82;4.03;;;;;;;;;;5094023;28;20055;-46
2022/04/21 09:02:12;;;;;;;5.05;4.03;;;;;;;;;;5093410;28;20483;-49
2022/04/21 09:04:38;;;;;;;4.68;4.03;;;;;;;;;;5091928;28;20043;-46
2022/04/21 09:07:42;;;;;;;6.30;3.92;;;;;;;;;;5091962;28;20386;-47
2022/04/21 09:10:12;;;;;;;4.72;4.20;;;;;;;;;;5085280;28;20052;-47
2022/04/21 09:12:42;;;;;;;4.53;4.13;;;;;;;;;;5092204;28;20024;-51
2022/04/21 09:15:19;;;;;;;10.63;3.63;;;;;;;;;;5092057;28;20053;-49
2022/04/21 09:17:47;;;;;;;4.82;3.90;;;;;;;;;;5091335;28;20035;-46
2022/04/21 09:20:16;;;;;;;5.35;4.03;;;;;;;;;;5090792;28;20120;-46
2022/04/21 09:22:47;;;;;;;4.28;3.20;;;;;;;;;;5091924;28;20383;-46
2022/04/21 09:25:13;;;;;;;5.40;3.63;;;;;;;;;;5091894;28;20181;-46
2022/04/21 09:27:44;;;;;;;4.45;3.88;;;;;;;;;;5091747;28;20103;-45
2022/04/21 09:30:12;;;;;;;4.70;4.20;;;;;;;;;;5091868;28;20103;-47
2022/04/21 09:32:48;;;;;;;5.50;3.20;;;;;;;;;;5091348;28;20028;-44
2022/04/21 09:35:14;;;;;;;4.68;4.10;;;;;;;;;;5091495;28;20030;-43
2022/04/21 09:37:49;;;;;;;7.00;4.00;;;;;;;;;;5090733;28;20028;-47
2022/04/21 09:40:15;;;;;;;13.13;4.38;;;;;;;;;;5091835;28;20380;-47
2022/04/21 09:42:41;;;;;;;4.00;3.22;;;;;;;;;;5091521;28;20032;-49
2022/04/21 09:47:54;;;;;;;4.57;3.67;;;;;;;;;;5091501;28;20070;-44
2022/04/21 09:50:20;;;;;;;5.00;4.50;;;;;;;;;;5091061;28;20036;-46
2022/04/21 09:52:48;;;;;;;4.97;3.72;;;;;;;;;;5091423;28;20081;-49
2022/04/21 09:55:21;;;;;;;5.13;3.65;;;;;;;;;;5091318;28;20036;-43
2022/04/21 09:57:51;;;;;;;6.38;4.22;;;;;;;;;;5089426;28;20060;-50
2022/04/21 10:00:20;;;;;;;5.17;4.03;;;;;;;;;;5091007;28;20496;-48
2022/04/21 10:02:48;;;;;;;4.88;4.05;;;;;;;;;;5090961;28;20487;-46
2022/04/21 10:05:14;;;;;;;4.20;3.70;;;;;;;;;;5091243;28;20051;-45
2022/04/21 10:07:40;;;;;;;3.75;3.40;;;;;;;;;;5091074;28;20387;-45
2022/04/21 10:10:06;;;;;;;5.53;4.40;;;;;;;;;;5091071;28;20028;-49
2022/04/21 10:12:32;;;;;;;5.80;4.80;;;;;;;;;;5091088;28;20096;-48
2022/04/21 10:15:00;;;;;;;7.20;4.63;;;;;;;;;;5090757;28;20024;-45
2022/04/21 10:17:25;;;;;;;5.43;4.38;;;;;;;;;;5090892;28;20032;-45
2022/04/21 10:19:52;;;;;;;5.00;4.40;;;;;;;;;;5090877;28;20124;-50
2022/04/21 10:22:17;;;;;;;7.20;4.40;;;;;;;;;;5090796;28;20028;-47
2022/04/21 10:24:44;;;;;;;5.97;4.63;;;;;;;;;;5091015;28;20082;-47
2022/04/21 10:27:36;;;;;;;5.75;4.50;;;;;;;;;;5091022;28;20039;-48
2022/04/21 10:30:09;;;;;;;7.82;4.60;;;;;;;;;;5090999;28;20059;-50
2022/04/21 10:32:54;;;;;;;5.80;4.93;;;;;;;;;;5090963;28;20028;-48
2022/04/21 10:35:23;;;;;;;7.50;4.65;;;;;;;;;;5090993;28;20528;-45
2022/04/21 10:38:18;;;;;;;5.63;4.63;;;;;;;;;;5090891;28;20024;-50
2022/04/21 10:40:57;;;;;;;5.97;4.68;;;;;;;;;;5090516;28;20032;-43
2022/04/21 10:43:23;;;;;;;11.63;5.00;;;;;;;;;;5090592;28;20031;-46
2022/04/21 10:46:17;;;;;;;5.25;4.57;;;;;;;;;;5089593;28;20020;-48
2022/04/21 10:48:43;;;;;;;10.13;5.32;;;;;;;;;;5090609;28;20024;-47
2022/04/21 10:51:10;;;;;;;6.55;5.35;;;;;;;;;;5094163;28;20063;-47
2022/04/21 10:59:30;;;;;;;6.65;4.90;;;;;;;;;;5094640;28;20035;-48
2022/04/21 11:02:10;;;;;;;6.18;5.07;;;;;;;;;;5094567;28;20039;-47
2022/04/21 11:04:35;;;;;;;;;;;;;;;;;;5094756;28;20100;-43
2022/04/21 11:07:12;;;;;;;8.57;5.35;;;;;;;;;;5094510;28;19951;-44
2022/04/21 11:09:47;;;;;;;6.90;5.20;;;;;;;;;;5094313;28;20365;-44
2022/04/21 11:12:17;;;;;;;10.65;4.93;;;;;;;;;;5094338;28;20028;-45
2022/04/21 11:14:43;;;;;;;6.78;5.32;;;;;;;;;;5094037;28;20503;-48
2022/04/21 11:17:09;;;;;;;7.18;5.60;;;;;;;;;;5093986;28;20552;-48
2022/04/21 11:19:45;;;;;;;6.45;5.50;;;;;;;;;;5093994;28;20028;-48
2022/04/21 11:22:12;;;;;;;8.88;5.70;;;;;;;;;;5094271;28;20111;-47
2022/04/21 11:25:07;;;;;;;6.60;5.32;;;;;;;;;;5094099;28;20024;-48
2022/04/21 11:27:37;;;;;;;5.63;4.88;;;;;;;;;;5084816;28;20040;-44
2022/04/21 11:30:13;;;;;;;6.63;5.07;;;;;;;;;;5093992;28;20024;-44
2022/04/21 11:32:47;;;;;;;4.85;4.28;;;;;;;;;;5094008;28;20031;-49
2022/04/21 11:35:13;;;;;;;6.25;4.70;;;;;;;;;;5093983;28;20032;-46
2022/04/21 11:37:51;;;;;;;7.75;5.22;;;;;;;;;;5093432;28;20036;-50
2022/04/21 11:40:20;;;;;;;5.20;4.70;;;;;;;;;;5093872;28;20028;-45
2022/04/21 11:42:50;;;;;;;5.45;3.83;;;;;;;;;;5093357;28;20498;-47
2022/04/21 11:45:26;;;;;;;4.50;4.03;;;;;;;;;;5093764;28;20028;-45
2022/04/21 11:47:53;;;;;;;8.77;4.30;;;;;;;;;;5093617;28;20035;-50
2022/04/21 11:50:19;;;;;;;6.25;4.07;;;;;;;;;;5093723;28;20395;-43
2022/04/21 11:52:46;;;;;;;6.25;3.97;;;;;;;;;;5093230;28;20028;-47
2022/04/21 11:55:15;;;;;;;4.97;4.20;;;;;;;;;;5093506;28;20032;-47
2022/04/21 11:57:42;;;;;;;3.75;3.38;;;;;;;;;;5093025;28;20048;-44
2022/04/21 12:00:08;;;;;;;4.35;3.90;;;;;;;;;;5093487;28;20035;-45
2022/04/21 12:08:06;;;;;;;5.10;3.80;;;;;;;;;;5093267;28;20087;-48
2022/04/21 12:10:31;;;;;;;4.50;3.45;;;;;;;;;;5092981;28;20020;-43
2022/04/21 12:12:57;;;;;;;4.72;3.83;;;;;;;;;;5093004;28;20027;-45
2022/04/21 12:15:27;;;;;;;7.15;4.60;;;;;;;;;;5093167;28;20032;-46
2022/04/21 12:18:00;;;;;;;5.57;4.03;;;;;;;;;;5092750;28;20129;-42
2022/04/21 12:20:26;;;;;;;4.95;3.90;;;;;;;;;;5092767;28;20166;-44
2022/04/21 12:22:52;;;;;;;7.10;4.78;;;;;;;;;;5092990;28;20055;-45
2022/04/21 12:25:17;;;;;;;10.63;4.40;;;;;;;;;;5092801;28;20121;-45
2022/04/21 12:27:44;;;;;;;4.22;3.83;;;;;;;;;;5092959;28;20468;-52
2022/04/21 12:30:15;;;;;;;6.10;4.03;;;;;;;;;;5092933;28;20364;-44
2022/04/21 12:32:49;;;;;;;4.82;4.28;;;;;;;;;;5092891;28;20106;-47
2022/04/21 12:35:15;;;;;;;4.72;4.15;;;;;;;;;;5092745;28;20024;-43
2022/04/21 12:37:44;;;;;;;4.38;3.85;;;;;;;;;;5092184;28;20035;-43
2022/04/21 12:40:11;;;;;;;5.82;4.28;;;;;;;;;;5092672;28;20028;-49
2022/04/21 12:42:38;;;;;;;12.07;4.15;;;;;;;;;;5092678;28;20047;-49
2022/04/21 12:45:05;;;;;;;4.57;4.03;;;;;;;;;;5092455;28;20039;-44
2022/04/21 12:47:30;;;;;;;8.13;4.68;;;;;;;;;;5092117;28;20020;-47
2022/04/21 12:50:08;;;;;;;8.20;4.93;;;;;;;;;;5092439;28;20066;-42
2022/04/21 12:52:35;;;;;;;6.15;3.55;;;;;;;;;;5091168;28;20032;-52
2022/04/21 12:55:05;;;;;;;2.65;2.38;;;;;;;;;;5092441;28;20028;-48
2022/04/21 12:57:30;;;;;;;4.70;3.60;;;;;;;;;;5091905;28;20048;-49
2022/04/21 12:59:56;;;;;;;4.82;4.10;;;;;;;;;;5092032;28;20039;-47
2022/04/21 13:02:23;;;;;;;7.70;4.47;;;;;;;;;;5091840;28;20028;-47
2022/04/21 13:04:48;;;;;;;5.07;4.32;;;;;;;;;;5091936;28;20032;-46
2022/04/21 13:07:14;;;;;;;6.35;4.28;;;;;;;;;;5091878;28;20035;-44
2022/04/21 13:09:39;;;;;;;5.97;4.20;;;;;;;;;;5092098;28;20123;-48
2022/04/21 13:12:05;;;;;;;5.93;4.60;;;;;;;;;;5092148;28;20024;-45
2022/04/21 13:14:31;;;;;;;7.47;4.82;;;;;;;;;;5090743;28;20682;-50
2022/04/21 13:16:57;;;;;;;7.13;4.30;;;;;;;;;;5091687;28;20032;-48
2022/04/21 13:19:22;;;;;;;5.70;4.30;;;;;;;;;;5091607;28;20103;-42
2022/04/21 13:21:57;;;;;;;5.10;4.38;;;;;;;;;;5091573;28;20174;-50
2022/04/21 13:24:26;;;;;;;4.70;4.18;;;;;;;;;;5091837;28;20422;-51
2022/04/21 13:26:52;;;;;;;6.65;3.83;;;;;;;;;;5091672;28;20429;-48
2022/04/21 13:29:19;;;;;;;5.00;4.03;;;;;;;;;;5091804;28;20048;-46
2022/04/21 13:34:28;;;;;;;5.45;4.18;;;;;;;;;;5091488;28;20418;-43
2022/04/21 13:36:54;;;;;;;4.50;3.88;;;;;;;;;;5091290;28;20028;-44
2022/04/21 13:39:20;;;;;;;5.07;4.07;;;;;;;;;;5091384;28;20024;-51
2022/04/21 13:41:46;;;;;;;4.47;3.85;;;;;;;;;;5091286;28;20084;-45
2022/04/21 13:44:12;;;;;;;4.80;3.60;;;;;;;;;;5091560;28;20031;-47
2022/04/21 13:46:38;;;;;;;5.00;4.05;;;;;;;;;;5091520;28;20429;-46
2022/04/21 13:49:04;;;;;;;5.25;4.13;;;;;;;;;;5091455;28;20024;-45
2022/04/21 13:51:29;;;;;;;4.53;3.20;;;;;;;;;;5091217;28;20032;-45
2022/04/21 13:53:55;;;;;;;6.32;4.50;;;;;;;;;;5091405;28;20032;-45
2022/04/21 13:56:25;;;;;;;4.30;3.83;;;;;;;;;;5090808;28;20059;-42
2022/04/21 13:58:50;;;;;;;5.85;4.20;;;;;;;;;;5091056;28;20483;-47
2022/04/21 14:01:16;;;;;;;4.47;3.53;;;;;;;;;;5091357;28;20028;-47
2022/04/21 14:03:43;;;;;;;5.03;3.97;;;;;;;;;;5091307;28;20472;-47
2022/04/21 14:06:08;;;;;;;4.45;3.63;;;;;;;;;;5091271;28;20056;-41
2022/04/21 14:08:38;;;;;;;4.78;3.70;;;;;;;;;;5091214;28;20051;-45
2022/04/21 14:11:05;;;;;;;8.93;4.18;;;;;;;;;;5091070;28;20043;-46
2022/04/21 14:13:31;;;;;;;8.52;3.60;;;;;;;;;;5091262;28;20622;-43
2022/04/21 14:15:58;;;;;;;6.72;3.63;;;;;;;;;;5091214;28;20028;-46
2022/04/21 14:18:24;;;;;;;3.47;3.05;;;;;;;;;;5090941;28;20036;-48
2022/04/21 14:20:52;;;;;;;5.13;3.45;;;;;;;;;;5090810;28;20471;-44
2022/04/21 14:23:20;;;;;;;4.93;3.58;;;;;;;;;;5091204;28;20028;-47
2022/04/21 14:25:46;;;;;;;7.60;3.63;;;;;;;;;;5093789;28;20028;-46
2022/04/21 14:28:12;;;;;;;3.88;3.45;;;;;;;;;;5095273;28;20038;-46
2022/04/21 14:30:37;;;;;;;7.68;3.83;;;;;;;;;;5094714;28;20059;-43
2022/04/21 14:33:03;;;;;;;3.95;3.13;;;;;;;;;;5095146;28;20085;-46
2022/04/21 14:35:29;;;;;;;5.07;3.95;;;;;;;;;;5094854;28;20028;-46
2022/04/21 14:46:06;;;;;;;3.78;3.35;;;;;;;;;;5094944;28;20384;-49
2022/04/21 14:48:32;;;;;;;4.80;3.50;;;;;;;;;;5094989;28;20024;-42
2022/04/21 14:50:57;;;;;;;6.28;3.30;;;;;;;;;;5094853;28;20533;-47
2022/04/21 14:53:23;;;;;;;7.13;3.65;;;;;;;;;;5094699;28;20648;-49
2022/04/21 14:55:53;;;;;;;4.90;3.63;;;;;;;;;;5094629;28;20039;-49
2022/04/21 14:58:19;;;;;;;4.83;3.83;;;;;;;;;;5094741;28;20123;-43
2022/04/21 15:00:45;;;;;;;6.15;3.80;;;;;;;;;;5094419;28;20264;-41
2022/04/21 15:03:14;;;;;;;6.07;4.25;;;;;;;;;;5093512;28;20028;-43
2022/04/21 15:05:40;;;;;;;7.78;3.85;;;;;;;;;;5094298;28;20536;-43
2022/04/21 15:08:08;;;;;;;6.93;4.30;;;;;;;;;;5094477;28;20035;-46
2022/04/21 15:10:40;;;;;;;5.20;3.80;;;;;;;;;;5094015;28;20173;-47
2022/04/21 15:13:08;;;;;;;4.47;3.80;;;;;;;;;;5094089;28;20097;-42
2022/04/21 15:15:35;;;;;;;5.50;4.20;;;;;;;;;;5093952;28;20551;-45
2022/04/21 15:18:00;;;;;;;6.80;3.63;;;;;;;;;;5094184;28;20032;-45
2022/04/21 15:20:29;;;;;;;5.13;3.83;;;;;;;;;;5094202;28;20498;-43
2022/04/21 15:22:55;;;;;;;6.32;4.68;;;;;;;;;;5093814;28;20028;-42
2022/04/21 15:25:20;;;;;;;5.88;4.50;;;;;;;;;;5093892;28;20027;-41
2022/04/21 15:27:46;;;;;;;7.57;4.93;;;;;;;;;;5094010;28;20020;-44
2022/04/21 15:30:11;;;;;;;6.43;5.18;;;;;;;;;;5094075;28;20081;-40
2022/04/21 15:32:37;;;;;;;7.85;4.78;;;;;;;;;;5093892;28;20054;-50
2022/04/21 15:35:02;;;;;;;7.63;4.53;;;;;;;;;;5093803;28;20024;-45
2022/04/21 15:37:28;;;;;;;8.45;5.20;;;;;;;;;;5092309;28;20081;-44
2022/04/21 15:39:53;;;;;;;4.88;4.22;;;;;;;;;;5093936;28;20039;-47